Time;durP1;ratioP1;P1;durP2;ratioP2;P2;SDS_P1;SDS_P2;PMS_P1;PMS_P2;Temp;Humidity;BMP_temperature;BMP_pressure;BME280_temperature;BME280_humidity;BME280_pressure;Samples;Min_cycle;Max_cycle;Signal;HPM_P1;HPM_P2
2023/06/25 00:00:36;;;;;;;17.50;15.93;;;;;;;;;;5103010;28;20463;-62
2023/06/25 00:03:02;;;;;;;17.57;15.93;;;;;;;;;;5108368;28;20490;-63
2023/06/25 00:05:29;;;;;;;17.77;16.10;;;;;;;;;;5102837;28;20873;-62
2023/06/25 00:07:55;;;;;;;16.77;15.27;;;;;;;;;;5105027;28;20481;-62
2023/06/25 00:10:23;;;;;;;17.33;15.93;;;;;;;;;;5105239;28;20447;-62
2023/06/25 00:12:49;;;;;;;18.07;16.30;;;;;;;;;;5101723;28;20495;-61
2023/06/25 00:15:16;;;;;;;17.80;16.10;;;;;;;;;;5101153;28;20479;-62
2023/06/25 00:17:47;;;;;;;16.87;15.20;;;;;;;;;;5103790;28;20481;-62
2023/06/25 00:20:13;;;;;;;17.67;16.07;;;;;;;;;;5094084;28;20448;-62
2023/06/25 00:22:40;;;;;;;16.27;14.87;;;;;;;;;;5103185;28;20510;-62
2023/06/25 00:25:06;;;;;;;16.20;14.60;;;;;;;;;;5102892;28;20458;-62
2023/06/25 00:27:34;;;;;;;15.43;14.17;;;;;;;;;;5102844;28;20991;-62
2023/06/25 00:30:00;;;;;;;16.60;15.10;;;;;;;;;;5102683;28;20514;-62
2023/06/25 00:32:27;;;;;;;14.07;12.77;;;;;;;;;;5100910;28;20447;-62
2023/06/25 00:34:57;;;;;;;16.80;15.30;;;;;;;;;;5102764;28;20473;-62
2023/06/25 00:37:24;;;;;;;14.80;13.40;;;;;;;;;;5102857;28;21026;-62
2023/06/25 00:39:51;;;;;;;15.37;14.00;;;;;;;;;;5102728;28;20474;-62
2023/06/25 00:42:18;;;;;;;15.77;14.37;;;;;;;;;;5101872;28;20453;-62
2023/06/25 00:44:46;;;;;;;15.20;13.90;;;;;;;;;;5098031;28;20486;-62
2023/06/25 00:47:13;;;;;;;15.43;14.03;;;;;;;;;;5099882;28;20520;-64
2023/06/25 00:49:40;;;;;;;15.13;13.70;;;;;;;;;;5101669;28;20455;-67
2023/06/25 00:52:08;;;;;;;15.00;13.80;;;;;;;;;;5100468;28;20447;-67
2023/06/25 00:54:37;;;;;;;16.10;14.70;;;;;;;;;;5101053;28;20451;-68
2023/06/25 00:57:05;;;;;;;15.00;13.70;;;;;;;;;;5098212;28;20499;-67
2023/06/25 00:59:31;;;;;;;16.43;14.93;;;;;;;;;;5101178;28;20482;-68
2023/06/25 01:02:02;;;;;;;15.80;14.30;;;;;;;;;;5102198;28;20462;-67
2023/06/25 01:04:33;;;;;;;15.10;13.60;;;;;;;;;;5101078;28;20462;-66
2023/06/25 01:07:01;;;;;;;15.77;14.37;;;;;;;;;;5104368;28;20487;-67
2023/06/25 01:09:28;;;;;;;13.97;12.77;;;;;;;;;;5098456;28;20473;-67
2023/06/25 01:12:02;;;;;;;14.70;13.40;;;;;;;;;;5100998;28;20508;-67
2023/06/25 01:14:28;;;;;;;15.87;14.57;;;;;;;;;;5100809;28;20474;-67
2023/06/25 01:16:55;;;;;;;14.97;13.57;;;;;;;;;;5101238;28;20481;-67
2023/06/25 01:19:29;;;;;;;15.43;14.00;;;;;;;;;;5100950;28;20443;-67
2023/06/25 01:21:56;;;;;;;17.03;15.43;;;;;;;;;;5100838;28;20577;-67
2023/06/25 01:24:24;;;;;;;16.20;14.80;;;;;;;;;;5101381;28;20451;-66
2023/06/25 01:26:54;;;;;;;16.57;15.07;;;;;;;;;;5097443;28;21037;-67
2023/06/25 01:29:21;;;;;;;15.87;14.47;;;;;;;;;;5101273;28;20462;-68
2023/06/25 01:31:51;;;;;;;16.87;15.43;;;;;;;;;;5095598;28;21188;-66
2023/06/25 01:34:19;;;;;;;18.53;16.93;;;;;;;;;;5096819;28;20451;-67
2023/06/25 01:36:48;;;;;;;18.70;17.10;;;;;;;;;;5092465;28;21088;-67
2023/06/25 01:39:15;;;;;;;17.90;16.30;;;;;;;;;;5100072;28;20494;-67
2023/06/25 01:41:42;;;;;;;16.57;15.07;;;;;;;;;;5101923;28;20478;-67
2023/06/25 01:44:10;;;;;;;17.30;15.90;;;;;;;;;;5091903;28;20494;-66
2023/06/25 01:46:37;;;;;;;15.70;14.40;;;;;;;;;;5101427;28;20469;-67
2023/06/25 01:49:03;;;;;;;17.63;16.10;;;;;;;;;;5100377;28;20539;-64
2023/06/25 01:51:31;;;;;;;15.67;14.27;;;;;;;;;;5092694;28;20580;-66
2023/06/25 01:53:57;;;;;;;17.07;15.47;;;;;;;;;;5102837;28;20450;-67
2023/06/25 01:56:24;;;;;;;16.97;15.17;;;;;;;;;;5100766;28;20509;-67
2023/06/25 01:58:53;;;;;;;18.03;16.43;;;;;;;;;;5097373;28;20535;-67
2023/06/25 02:01:20;;;;;;;18.27;16.50;;;;;;;;;;5094941;28;20831;-67
2023/06/25 02:03:46;;;;;;;15.43;14.03;;;;;;;;;;5101342;28;20459;-66
2023/06/25 02:06:14;;;;;;;15.20;13.83;;;;;;;;;;5101032;28;20451;-67
2023/06/25 02:08:40;;;;;;;16.07;14.67;;;;;;;;;;5100978;28;20479;-67
2023/06/25 02:11:07;;;;;;;17.17;15.30;;;;;;;;;;5101008;28;20490;-67
2023/06/25 02:13:33;;;;;;;16.80;15.40;;;;;;;;;;5092405;28;20454;-68
2023/06/25 02:16:01;;;;;;;15.70;14.40;;;;;;;;;;5097641;28;20542;-66
2023/06/25 02:18:28;;;;;;;17.50;15.93;;;;;;;;;;5101174;28;20482;-67
2023/06/25 02:20:54;;;;;;;18.47;16.70;;;;;;;;;;5099878;28;21039;-68
2023/06/25 02:23:21;;;;;;;16.80;15.17;;;;;;;;;;5101558;28;20471;-66
2023/06/25 02:25:48;;;;;;;16.93;15.53;;;;;;;;;;5096191;28;20497;-67
2023/06/25 02:28:14;;;;;;;17.37;15.87;;;;;;;;;;5100303;28;20467;-68
2023/06/25 02:30:40;;;;;;;17.30;15.80;;;;;;;;;;5098467;28;20460;-69
2023/06/25 02:33:08;;;;;;;16.80;15.20;;;;;;;;;;5098660;28;20455;-67
2023/06/25 02:35:35;;;;;;;18.20;16.60;;;;;;;;;;5097086;28;20484;-67
2023/06/25 02:38:01;;;;;;;19.10;17.40;;;;;;;;;;5101326;28;20477;-67
2023/06/25 02:40:28;;;;;;;18.30;16.70;;;;;;;;;;5091192;28;20477;-66
2023/06/25 02:42:54;;;;;;;18.43;16.73;;;;;;;;;;5098803;28;20487;-69
2023/06/25 02:45:20;;;;;;;19.57;17.83;;;;;;;;;;5100110;28;20538;-68
2023/06/25 02:47:47;;;;;;;18.47;16.67;;;;;;;;;;5096434;28;20638;-68
2023/06/25 02:50:15;;;;;;;20.23;18.20;;;;;;;;;;5099629;28;20901;-65
2023/06/25 02:52:41;;;;;;;18.33;16.67;;;;;;;;;;5093494;28;20440;-68
2023/06/25 02:55:08;;;;;;;19.03;17.37;;;;;;;;;;5098083;28;20482;-68
2023/06/25 02:57:35;;;;;;;18.47;16.63;;;;;;;;;;5095169;28;20447;-68
2023/06/25 03:00:01;;;;;;;17.70;16.20;;;;;;;;;;5100941;28;20516;-67
2023/06/25 03:02:28;;;;;;;17.83;16.23;;;;;;;;;;5099313;28;20500;-67
2023/06/25 03:04:54;;;;;;;19.03;17.13;;;;;;;;;;5094509;28;20476;-67
2023/06/25 03:07:22;;;;;;;19.03;17.27;;;;;;;;;;5098021;28;20471;-66
2023/06/25 03:09:48;;;;;;;17.33;15.70;;;;;;;;;;5094907;28;20447;-67
2023/06/25 03:12:15;;;;;;;19.10;17.30;;;;;;;;;;5097852;28;20487;-67
2023/06/25 03:14:42;;;;;;;17.60;16.10;;;;;;;;;;5095339;28;20497;-67
2023/06/25 03:17:08;;;;;;;17.87;16.00;;;;;;;;;;5098507;28;20485;-66
2023/06/25 03:19:34;;;;;;;17.50;15.80;;;;;;;;;;5099407;28;20443;-66
2023/06/25 03:22:01;;;;;;;17.63;16.03;;;;;;;;;;5096938;28;20519;-66
2023/06/25 03:24:29;;;;;;;16.90;15.50;;;;;;;;;;5100063;28;20780;-67
2023/06/25 03:26:55;;;;;;;16.50;15.10;;;;;;;;;;5101899;28;20519;-66
2023/06/25 03:29:21;;;;;;;18.10;16.50;;;;;;;;;;5098448;28;20582;-66
2023/06/25 03:31:48;;;;;;;17.70;16.20;;;;;;;;;;5100170;28;20499;-67
2023/06/25 03:34:14;;;;;;;17.83;16.13;;;;;;;;;;5103757;28;20467;-67
2023/06/25 03:36:41;;;;;;;16.17;14.63;;;;;;;;;;5101563;28;20462;-67
2023/06/25 03:39:07;;;;;;;15.70;14.20;;;;;;;;;;5101970;28;20451;-67
2023/06/25 03:41:35;;;;;;;14.60;13.23;;;;;;;;;;5102936;28;20458;-67
2023/06/25 03:44:01;;;;;;;13.83;12.63;;;;;;;;;;5107737;28;20519;-67
2023/06/25 03:46:27;;;;;;;14.60;13.40;;;;;;;;;;5100036;28;20975;-67
2023/06/25 03:48:54;;;;;;;15.67;14.27;;;;;;;;;;5099717;28;20478;-67
2023/06/25 03:51:20;;;;;;;14.03;12.83;;;;;;;;;;5107630;28;20526;-67
2023/06/25 03:53:47;;;;;;;13.63;11.57;;;;;;;;;;5102509;28;20897;-68
2023/06/25 03:56:13;;;;;;;12.83;11.77;;;;;;;;;;5100450;28;20450;-68
2023/06/25 03:58:41;;;;;;;14.90;12.10;;;;;;;;;;5102111;28;20470;-67
2023/06/25 04:01:07;;;;;;;12.63;11.43;;;;;;;;;;5102852;28;20460;-67
2023/06/25 04:03:34;;;;;;;12.40;11.40;;;;;;;;;;5107995;28;20786;-68
2023/06/25 04:06:00;;;;;;;12.00;11.00;;;;;;;;;;5100146;28;20451;-68
2023/06/25 04:08:26;;;;;;;12.07;11.17;;;;;;;;;;5103169;28;20479;-67
2023/06/25 04:10:53;;;;;;;11.43;10.33;;;;;;;;;;5103835;28;20471;-67
2023/06/25 04:13:19;;;;;;;12.60;11.40;;;;;;;;;;5101200;28;20466;-64
2023/06/25 04:15:47;;;;;;;10.00;9.10;;;;;;;;;;5102350;28;20455;-68
2023/06/25 04:18:13;;;;;;;10.30;9.43;;;;;;;;;;5101867;28;20447;-69
2023/06/25 04:20:40;;;;;;;10.47;9.63;;;;;;;;;;5101860;28;20474;-68
2023/06/25 04:23:09;;;;;;;10.80;9.90;;;;;;;;;;5101845;28;20534;-69
2023/06/25 04:25:36;;;;;;;15.53;10.00;;;;;;;;;;5099876;28;20528;-69
2023/06/25 04:28:02;;;;;;;11.47;10.57;;;;;;;;;;5098363;28;20479;-70
2023/06/25 04:30:29;;;;;;;11.13;9.97;;;;;;;;;;5098014;28;20467;-69
2023/06/25 04:32:57;;;;;;;12.30;11.10;;;;;;;;;;5102969;28;20500;-70
2023/06/25 04:35:23;;;;;;;11.57;10.47;;;;;;;;;;5094428;28;20471;-69
2023/06/25 04:37:49;;;;;;;11.13;10.03;;;;;;;;;;5099111;28;20451;-68
2023/06/25 04:40:16;;;;;;;10.30;9.30;;;;;;;;;;5100078;28;20482;-69
2023/06/25 04:42:42;;;;;;;9.87;8.97;;;;;;;;;;5101090;28;20499;-70
2023/06/25 04:45:09;;;;;;;11.33;10.07;;;;;;;;;;5099734;28;20908;-71
2023/06/25 04:47:36;;;;;;;10.50;9.63;;;;;;;;;;5102200;28;20478;-73
2023/06/25 04:50:04;;;;;;;9.07;8.27;;;;;;;;;;5094381;28;20542;-72
2023/06/25 04:52:30;;;;;;;9.20;8.30;;;;;;;;;;5102001;28;20580;-71
2023/06/25 04:54:56;;;;;;;8.30;7.63;;;;;;;;;;5098923;28;21180;-71
2023/06/25 04:57:23;;;;;;;8.73;8.03;;;;;;;;;;5098741;28;20474;-70
2023/06/25 04:59:49;;;;;;;9.20;8.40;;;;;;;;;;5097714;28;20451;-71
2023/06/25 05:02:16;;;;;;;8.60;7.90;;;;;;;;;;5099090;28;20454;-71
2023/06/25 05:04:42;;;;;;;9.70;8.80;;;;;;;;;;5098419;28;20474;-73
2023/06/25 05:07:10;;;;;;;8.93;7.47;;;;;;;;;;5098160;28;21350;-71
2023/06/25 05:09:36;;;;;;;9.23;7.70;;;;;;;;;;5099373;28;21459;-73
2023/06/25 05:12:03;;;;;;;9.30;8.20;;;;;;;;;;5098513;28;20905;-73
2023/06/25 05:14:29;;;;;;;9.13;8.17;;;;;;;;;;5098397;28;20447;-72
2023/06/25 05:16:56;;;;;;;9.07;7.87;;;;;;;;;;5098136;28;20909;-70
2023/06/25 05:19:22;;;;;;;9.40;8.47;;;;;;;;;;5098856;28;20439;-70
2023/06/25 05:21:49;;;;;;;11.47;8.67;;;;;;;;;;5098166;28;20451;-71
2023/06/25 05:24:17;;;;;;;8.30;7.50;;;;;;;;;;5099387;28;21386;-72
2023/06/25 05:26:43;;;;;;;7.33;6.73;;;;;;;;;;5097943;28;20467;-71
2023/06/25 05:29:09;;;;;;;8.73;8.03;;;;;;;;;;5096374;28;21002;-71
2023/06/25 05:31:36;;;;;;;8.53;7.47;;;;;;;;;;5093023;28;20459;-67
2023/06/25 05:34:02;;;;;;;7.53;6.80;;;;;;;;;;5099724;28;20470;-72
2023/06/25 05:36:29;;;;;;;7.87;7.17;;;;;;;;;;5097987;28;20467;-71
2023/06/25 05:38:55;;;;;;;8.57;7.77;;;;;;;;;;5097148;28;20496;-70
2023/06/25 05:41:23;;;;;;;9.00;8.20;;;;;;;;;;5111625;28;20458;-73
2023/06/25 05:43:49;;;;;;;7.83;7.20;;;;;;;;;;5093976;28;20482;-75
2023/06/25 05:46:16;;;;;;;8.87;7.97;;;;;;;;;;5090896;28;20455;-75
2023/06/25 05:48:44;;;;;;;8.87;8.00;;;;;;;;;;5110893;28;20918;-73
2023/06/25 05:51:10;;;;;;;8.33;7.53;;;;;;;;;;5095270;28;20479;-73
2023/06/25 05:53:40;;;;;;;8.50;7.60;;;;;;;;;;5093223;28;20447;-74
2023/06/25 05:56:07;;;;;;;8.80;8.00;;;;;;;;;;5097428;28;20498;-69
2023/06/25 05:58:35;;;;;;;8.00;7.30;;;;;;;;;;5094335;28;20439;-70
2023/06/25 06:01:01;;;;;;;8.20;7.37;;;;;;;;;;5092415;28;20504;-70
2023/06/25 06:03:27;;;;;;;8.10;7.13;;;;;;;;;;5101600;28;20474;-70
2023/06/25 06:05:55;;;;;;;7.20;6.50;;;;;;;;;;5091223;28;20505;-71
2023/06/25 06:08:21;;;;;;;9.33;7.53;;;;;;;;;;5083111;28;20456;-69
2023/06/25 06:10:48;;;;;;;9.20;7.20;;;;;;;;;;5096413;28;20918;-71
2023/06/25 06:13:15;;;;;;;6.70;6.10;;;;;;;;;;5097055;28;20518;-71
2023/06/25 06:15:43;;;;;;;7.20;6.50;;;;;;;;;;5103217;28;20477;-71
2023/06/25 06:18:09;;;;;;;7.77;6.90;;;;;;;;;;5096232;28;20504;-70
2023/06/25 06:20:36;;;;;;;6.93;6.33;;;;;;;;;;5089504;28;20523;-71
2023/06/25 06:23:03;;;;;;;8.33;6.27;;;;;;;;;;5096123;28;20452;-70
2023/06/25 06:25:29;;;;;;;7.67;6.67;;;;;;;;;;5100124;28;20451;-70
2023/06/25 06:27:56;;;;;;;8.93;6.53;;;;;;;;;;5088510;28;20451;-70
2023/06/25 06:30:23;;;;;;;6.93;6.17;;;;;;;;;;5095565;28;20487;-71
2023/06/25 06:32:51;;;;;;;8.07;5.90;;;;;;;;;;5093197;28;20804;-71
2023/06/25 06:35:17;;;;;;;7.57;6.23;;;;;;;;;;5096935;28;20527;-70
2023/06/25 06:37:44;;;;;;;6.60;5.53;;;;;;;;;;5093865;28;20463;-71
2023/06/25 06:40:10;;;;;;;7.50;6.70;;;;;;;;;;5092253;28;20969;-72
2023/06/25 06:42:37;;;;;;;9.03;6.97;;;;;;;;;;5094865;28;20474;-70
2023/06/25 06:45:03;;;;;;;7.17;6.47;;;;;;;;;;5089023;28;20554;-69
2023/06/25 06:47:30;;;;;;;6.90;6.23;;;;;;;;;;5090777;28;20492;-72
2023/06/25 06:49:58;;;;;;;8.97;6.40;;;;;;;;;;5092410;28;20497;-71
2023/06/25 06:52:25;;;;;;;6.83;6.13;;;;;;;;;;5094355;28;20486;-72
2023/06/25 06:54:51;;;;;;;7.13;6.43;;;;;;;;;;5100158;28;20459;-69
2023/06/25 06:57:18;;;;;;;7.37;5.90;;;;;;;;;;5091093;28;20854;-72
2023/06/25 06:59:45;;;;;;;6.47;5.77;;;;;;;;;;5100030;28;20475;-69
2023/06/25 07:02:12;;;;;;;6.57;5.97;;;;;;;;;;5106874;28;20476;-72
2023/06/25 07:04:41;;;;;;;6.10;5.33;;;;;;;;;;5107056;28;20461;-72
2023/06/25 07:07:08;;;;;;;7.00;6.30;;;;;;;;;;5097689;28;20833;-69
2023/06/25 07:09:36;;;;;;;6.90;6.10;;;;;;;;;;5102467;28;20509;-72
2023/06/25 07:14:39;;;;;;;9.07;5.80;;;;;;;;;;5103072;28;20962;-72
2023/06/25 07:17:05;;;;;;;7.77;5.57;;;;;;;;;;5096019;28;20479;-73
2023/06/25 07:19:32;;;;;;;6.00;5.40;;;;;;;;;;5093591;28;20451;-73
2023/06/25 07:21:58;;;;;;;6.27;5.60;;;;;;;;;;5092564;28;20938;-67
2023/06/25 07:24:26;;;;;;;6.80;6.10;;;;;;;;;;5106470;28;20445;-69
2023/06/25 07:26:52;;;;;;;9.03;6.37;;;;;;;;;;5108373;28;20541;-72
2023/06/25 07:29:19;;;;;;;6.80;5.77;;;;;;;;;;5106643;28;20508;-73
2023/06/25 07:31:45;;;;;;;6.67;6.03;;;;;;;;;;5095142;28;20451;-72
2023/06/25 07:34:12;;;;;;;5.70;5.20;;;;;;;;;;5102194;28;20494;-70
2023/06/25 07:36:38;;;;;;;5.97;5.30;;;;;;;;;;5093362;28;20458;-70
2023/06/25 07:39:05;;;;;;;10.13;5.70;;;;;;;;;;5110453;28;20645;-71
2023/06/25 07:41:33;;;;;;;5.77;5.20;;;;;;;;;;5099947;28;20494;-72
2023/06/25 07:43:59;;;;;;;5.87;5.27;;;;;;;;;;5096679;28;21036;-71
2023/06/25 07:46:25;;;;;;;5.23;4.77;;;;;;;;;;5103337;28;20470;-73
2023/06/25 07:48:52;;;;;;;6.00;5.47;;;;;;;;;;5099045;28;20451;-73
2023/06/25 07:51:18;;;;;;;9.07;5.67;;;;;;;;;;5102073;28;20548;-73
2023/06/25 07:53:45;;;;;;;5.67;5.00;;;;;;;;;;5104531;28;20756;-73
2023/06/25 07:56:11;;;;;;;7.50;5.73;;;;;;;;;;5103829;28;20455;-70
2023/06/25 07:58:39;;;;;;;6.33;5.53;;;;;;;;;;5102436;28;20446;-73
2023/06/25 08:01:05;;;;;;;5.50;5.00;;;;;;;;;;5097388;28;20506;-68
2023/06/25 08:03:32;;;;;;;6.20;5.60;;;;;;;;;;5098165;28;21037;-72
2023/06/25 08:05:58;;;;;;;5.80;5.30;;;;;;;;;;5101077;28;20473;-72
2023/06/25 08:08:24;;;;;;;5.57;5.17;;;;;;;;;;5106968;28;20482;-73
2023/06/25 08:10:51;;;;;;;6.40;5.80;;;;;;;;;;5100430;28;20531;-73
2023/06/25 08:13:18;;;;;;;5.30;4.90;;;;;;;;;;5104423;28;20462;-70
2023/06/25 08:15:46;;;;;;;6.87;5.20;;;;;;;;;;5093872;28;20829;-69
2023/06/25 08:18:12;;;;;;;6.10;5.50;;;;;;;;;;5099988;28;20773;-70
2023/06/25 08:20:39;;;;;;;5.67;5.17;;;;;;;;;;5091451;28;20454;-72
2023/06/25 08:23:05;;;;;;;5.77;5.27;;;;;;;;;;5103415;28;20489;-72
2023/06/25 08:25:32;;;;;;;6.70;6.10;;;;;;;;;;5106534;28;20898;-72
2023/06/25 08:27:58;;;;;;;6.03;5.50;;;;;;;;;;5101702;28;21104;-73
2023/06/25 08:30:24;;;;;;;5.83;5.30;;;;;;;;;;5101304;28;20486;-72
2023/06/25 08:32:52;;;;;;;8.00;5.40;;;;;;;;;;5107636;28;20451;-73
2023/06/25 08:35:19;;;;;;;6.23;5.60;;;;;;;;;;5095950;28;20485;-72
2023/06/25 08:37:45;;;;;;;6.23;5.67;;;;;;;;;;5086692;28;20456;-73
2023/06/25 08:40:12;;;;;;;6.73;5.90;;;;;;;;;;5098830;28;20439;-67
2023/06/25 08:42:41;;;;;;;5.80;5.30;;;;;;;;;;5084969;28;20519;-73
2023/06/25 08:45:08;;;;;;;5.93;5.30;;;;;;;;;;5089077;28;20548;-72
2023/06/25 08:47:38;;;;;;;7.20;5.43;;;;;;;;;;5095034;28;20456;-70
2023/06/25 08:50:06;;;;;;;6.10;5.60;;;;;;;;;;5098570;28;20475;-73
2023/06/25 08:52:34;;;;;;;8.40;5.90;;;;;;;;;;5091793;28;20516;-72
2023/06/25 08:55:01;;;;;;;8.07;6.00;;;;;;;;;;5101724;28;20451;-73
2023/06/25 08:57:28;;;;;;;6.43;5.30;;;;;;;;;;5095570;28;20487;-73
2023/06/25 08:59:54;;;;;;;8.03;5.20;;;;;;;;;;5112585;27;20438;-73
2023/06/25 09:02:20;;;;;;;5.87;5.27;;;;;;;;;;5123055;27;20478;-73
2023/06/25 09:04:47;;;;;;;5.83;5.40;;;;;;;;;;5109831;27;21393;-73
2023/06/25 09:07:16;;;;;;;6.53;5.00;;;;;;;;;;5112578;28;20450;-72
2023/06/25 09:09:42;;;;;;;5.37;4.80;;;;;;;;;;5121545;27;20510;-73
2023/06/25 09:12:10;;;;;;;6.77;5.20;;;;;;;;;;5117910;27;20438;-74
2023/06/25 09:14:36;;;;;;;6.23;5.27;;;;;;;;;;5112867;28;20898;-72
2023/06/25 09:17:03;;;;;;;5.43;4.93;;;;;;;;;;5113401;27;20558;-73
2023/06/25 09:19:30;;;;;;;5.23;4.83;;;;;;;;;;5115227;27;20513;-73
2023/06/25 09:21:56;;;;;;;8.80;4.53;;;;;;;;;;5117196;28;20438;-73
2023/06/25 09:24:24;;;;;;;4.80;4.40;;;;;;;;;;5120673;28;20485;-73
2023/06/25 09:26:51;;;;;;;5.83;5.20;;;;;;;;;;5132586;27;20461;-72
2023/06/25 09:29:18;;;;;;;5.17;4.67;;;;;;;;;;5114727;27;20505;-73
2023/06/25 09:31:45;;;;;;;5.60;5.10;;;;;;;;;;5108979;28;20459;-73
2023/06/25 09:34:11;;;;;;;5.33;4.83;;;;;;;;;;5118719;28;20549;-72
2023/06/25 09:36:37;;;;;;;6.40;5.03;;;;;;;;;;5125443;27;20445;-73
2023/06/25 09:39:04;;;;;;;5.83;5.10;;;;;;;;;;5120840;27;20509;-73
2023/06/25 09:41:33;;;;;;;6.17;4.90;;;;;;;;;;5120574;27;20478;-72
2023/06/25 09:44:02;;;;;;;4.80;4.27;;;;;;;;;;5123974;27;20508;-73
2023/06/25 09:46:29;;;;;;;7.40;5.20;;;;;;;;;;5114819;28;20450;-71
2023/06/25 09:48:57;;;;;;;5.00;4.50;;;;;;;;;;5116303;27;20446;-70
2023/06/25 09:51:28;;;;;;;6.83;4.90;;;;;;;;;;5122418;27;20480;-70
2023/06/25 09:53:56;;;;;;;5.30;4.80;;;;;;;;;;5111466;28;20451;-73
2023/06/25 09:56:23;;;;;;;5.17;4.67;;;;;;;;;;5116446;27;20481;-68
2023/06/25 09:58:50;;;;;;;5.10;4.60;;;;;;;;;;5120695;28;20450;-73
2023/06/25 10:01:17;;;;;;;6.40;5.43;;;;;;;;;;5116665;27;20468;-71
2023/06/25 10:03:43;;;;;;;4.80;4.40;;;;;;;;;;5115235;27;21122;-72
2023/06/25 10:06:10;;;;;;;5.00;4.10;;;;;;;;;;5108241;28;20538;-71
2023/06/25 10:08:36;;;;;;;5.90;4.60;;;;;;;;;;5111429;28;20993;-72
2023/06/25 10:11:05;;;;;;;5.17;4.67;;;;;;;;;;5119411;28;20478;-73
2023/06/25 10:13:32;;;;;;;5.50;5.00;;;;;;;;;;5116936;28;20468;-73
2023/06/25 10:16:00;;;;;;;5.80;4.77;;;;;;;;;;5114895;28;20526;-69
2023/06/25 10:18:26;;;;;;;4.40;4.00;;;;;;;;;;5119276;27;20497;-67
2023/06/25 10:20:56;;;;;;;5.20;4.47;;;;;;;;;;5119443;28;20504;-72
2023/06/25 10:23:26;;;;;;;5.60;4.30;;;;;;;;;;5118435;28;20460;-73
2023/06/25 10:25:53;;;;;;;5.43;4.70;;;;;;;;;;5119996;27;20458;-73
2023/06/25 10:28:19;;;;;;;6.43;4.63;;;;;;;;;;5124111;27;20450;-72
2023/06/25 10:30:47;;;;;;;10.30;5.37;;;;;;;;;;5129423;27;20581;-73
2023/06/25 10:33:16;;;;;;;5.77;4.20;;;;;;;;;;5118322;28;20514;-73
2023/06/25 10:35:42;;;;;;;5.93;4.57;;;;;;;;;;5117825;28;20458;-71
2023/06/25 10:38:09;;;;;;;6.17;5.10;;;;;;;;;;5107036;28;20451;-71
2023/06/25 10:40:36;;;;;;;4.87;4.37;;;;;;;;;;5107506;28;20486;-72
2023/06/25 10:43:02;;;;;;;5.37;4.87;;;;;;;;;;5107862;28;20538;-71
2023/06/25 10:45:30;;;;;;;5.17;4.67;;;;;;;;;;5119321;28;20954;-72
2023/06/25 10:48:04;;;;;;;5.10;4.53;;;;;;;;;;5117300;28;20446;-73
2023/06/25 10:50:32;;;;;;;5.20;4.43;;;;;;;;;;5125078;28;20510;-71
2023/06/25 10:53:02;;;;;;;5.53;5.03;;;;;;;;;;5120603;28;20446;-72
2023/06/25 10:55:28;;;;;;;5.27;4.77;;;;;;;;;;5111233;28;20836;-70
2023/06/25 10:57:55;;;;;;;5.20;4.70;;;;;;;;;;5114882;28;20468;-71
2023/06/25 11:00:23;;;;;;;5.40;4.90;;;;;;;;;;5120010;28;20470;-73
2023/06/25 11:02:51;;;;;;;5.40;4.90;;;;;;;;;;5120094;28;20443;-74
2023/06/25 11:05:17;;;;;;;5.40;4.90;;;;;;;;;;5109618;28;20454;-72
2023/06/25 11:07:45;;;;;;;9.17;5.00;;;;;;;;;;5115951;28;20451;-72
2023/06/25 11:10:13;;;;;;;5.47;4.97;;;;;;;;;;5115397;28;20627;-69
2023/06/25 11:12:40;;;;;;;5.50;4.60;;;;;;;;;;5118238;28;20450;-73
2023/06/25 11:15:07;;;;;;;5.93;4.43;;;;;;;;;;5110186;28;20512;-74
2023/06/25 11:17:36;;;;;;;7.70;5.83;;;;;;;;;;5114689;28;20500;-72
2023/06/25 11:20:03;;;;;;;5.23;4.73;;;;;;;;;;5102945;28;20472;-71
2023/06/25 11:22:29;;;;;;;5.43;4.93;;;;;;;;;;5116088;28;20476;-72
2023/06/25 11:24:58;;;;;;;5.87;5.27;;;;;;;;;;5125310;28;20482;-72
2023/06/25 11:27:27;;;;;;;5.10;4.60;;;;;;;;;;5118651;28;20483;-70
2023/06/25 11:29:57;;;;;;;4.50;4.10;;;;;;;;;;5127555;28;20480;-72
2023/06/25 11:32:25;;;;;;;6.37;5.77;;;;;;;;;;5127661;28;20450;-71
2023/06/25 11:34:51;;;;;;;5.80;5.30;;;;;;;;;;5116358;28;20459;-73
2023/06/25 11:37:19;;;;;;;6.00;4.87;;;;;;;;;;5114491;28;20455;-72
2023/06/25 11:39:46;;;;;;;7.60;5.10;;;;;;;;;;5117584;28;20454;-72
2023/06/25 11:42:14;;;;;;;5.20;4.60;;;;;;;;;;5106997;28;20500;-71
2023/06/25 11:44:41;;;;;;;5.70;5.13;;;;;;;;;;5124176;28;20565;-72
2023/06/25 11:47:11;;;;;;;6.57;5.50;;;;;;;;;;5109445;28;20856;-71
2023/06/25 11:49:38;;;;;;;5.70;5.10;;;;;;;;;;5107682;28;20481;-71
2023/06/25 11:52:05;;;;;;;5.90;5.40;;;;;;;;;;5122955;28;20485;-72
2023/06/25 11:54:31;;;;;;;5.70;5.00;;;;;;;;;;5122154;27;20450;-72
2023/06/25 11:56:58;;;;;;;8.13;5.23;;;;;;;;;;5122998;27;20458;-72
2023/06/25 11:59:25;;;;;;;5.03;4.50;;;;;;;;;;5124041;28;20766;-72
2023/06/25 12:01:52;;;;;;;6.63;5.10;;;;;;;;;;5115450;28;20483;-72
2023/06/25 12:04:18;;;;;;;5.80;5.20;;;;;;;;;;5124983;27;20471;-72
2023/06/25 12:06:45;;;;;;;5.00;4.50;;;;;;;;;;5115123;28;20550;-69
2023/06/25 12:09:11;;;;;;;4.40;4.00;;;;;;;;;;5116410;27;20446;-73
2023/06/25 12:11:38;;;;;;;4.73;4.20;;;;;;;;;;5123786;27;21116;-72
2023/06/25 12:14:04;;;;;;;4.33;3.93;;;;;;;;;;5112696;27;20449;-71
2023/06/25 12:16:32;;;;;;;5.07;4.57;;;;;;;;;;5130430;27;20463;-72
2023/06/25 12:18:58;;;;;;;4.40;4.00;;;;;;;;;;5116596;27;20454;-72
2023/06/25 12:21:25;;;;;;;6.40;4.70;;;;;;;;;;5121284;28;20482;-70
2023/06/25 12:23:51;;;;;;;7.27;4.37;;;;;;;;;;5117071;28;20446;-71
2023/06/25 12:26:18;;;;;;;4.50;3.87;;;;;;;;;;5116425;27;20486;-71
2023/06/25 12:28:44;;;;;;;5.07;4.57;;;;;;;;;;5120737;27;20465;-70
2023/06/25 12:31:10;;;;;;;5.40;4.80;;;;;;;;;;5120839;27;20627;-72
2023/06/25 12:33:38;;;;;;;6.77;4.43;;;;;;;;;;5125984;27;20463;-72
2023/06/25 12:36:05;;;;;;;4.50;4.10;;;;;;;;;;5122337;28;20446;-71
2023/06/25 12:38:31;;;;;;;5.20;4.43;;;;;;;;;;5123032;28;20470;-71
2023/06/25 12:40:58;;;;;;;6.30;5.00;;;;;;;;;;5132304;27;20521;-71
2023/06/25 12:43:24;;;;;;;5.30;4.80;;;;;;;;;;5116910;27;20487;-72
2023/06/25 12:45:50;;;;;;;5.53;4.90;;;;;;;;;;5116949;28;20482;-71
2023/06/25 12:48:17;;;;;;;5.80;5.30;;;;;;;;;;5128946;27;20981;-72
2023/06/25 12:50:45;;;;;;;5.60;4.93;;;;;;;;;;5128246;27;20496;-71
2023/06/25 12:53:11;;;;;;;4.93;4.10;;;;;;;;;;5120549;28;20558;-72
2023/06/25 12:55:38;;;;;;;5.80;5.30;;;;;;;;;;5121917;28;20486;-72
2023/06/25 12:58:05;;;;;;;9.63;5.43;;;;;;;;;;5121548;27;20511;-70
2023/06/25 13:00:31;;;;;;;5.67;4.83;;;;;;;;;;5124185;27;20834;-72
2023/06/25 13:02:57;;;;;;;6.77;5.20;;;;;;;;;;5122803;28;20444;-71
2023/06/25 13:05:24;;;;;;;5.00;4.37;;;;;;;;;;5122472;27;20446;-72
2023/06/25 13:07:51;;;;;;;6.03;5.50;;;;;;;;;;5128074;27;20480;-69
2023/06/25 13:10:18;;;;;;;5.53;5.00;;;;;;;;;;5122208;27;20514;-71
2023/06/25 13:12:44;;;;;;;6.33;5.37;;;;;;;;;;5126930;27;20835;-71
2023/06/25 13:15:11;;;;;;;6.20;5.00;;;;;;;;;;5120841;27;20480;-72
2023/06/25 13:17:38;;;;;;;5.47;4.97;;;;;;;;;;5121544;28;20458;-71
2023/06/25 13:20:05;;;;;;;5.47;4.97;;;;;;;;;;5131740;27;20457;-69
2023/06/25 13:22:31;;;;;;;6.67;5.00;;;;;;;;;;5118382;27;20446;-70
2023/06/25 13:24:59;;;;;;;5.83;5.10;;;;;;;;;;5121947;28;20461;-69
2023/06/25 13:27:25;;;;;;;5.47;4.93;;;;;;;;;;5119109;28;20486;-69
2023/06/25 13:29:52;;;;;;;6.13;5.53;;;;;;;;;;5115121;27;20457;-71
2023/06/25 13:32:18;;;;;;;6.77;5.53;;;;;;;;;;5121285;27;20479;-70
2023/06/25 13:34:45;;;;;;;6.10;4.80;;;;;;;;;;5120582;28;20457;-71
2023/06/25 13:37:11;;;;;;;6.70;5.73;;;;;;;;;;5116768;28;20458;-68
2023/06/25 13:39:38;;;;;;;8.73;5.00;;;;;;;;;;5115164;28;20726;-71
2023/06/25 13:42:06;;;;;;;6.20;5.60;;;;;;;;;;5111666;27;20450;-71
2023/06/25 13:44:33;;;;;;;5.93;5.23;;;;;;;;;;5118132;27;20474;-70
2023/06/25 13:46:59;;;;;;;5.50;5.00;;;;;;;;;;5121762;27;20467;-70
2023/06/25 13:49:26;;;;;;;6.23;5.10;;;;;;;;;;5111599;27;20933;-67
2023/06/25 13:51:52;;;;;;;7.53;5.07;;;;;;;;;;5123097;27;20504;-69
2023/06/25 13:54:18;;;;;;;5.10;4.60;;;;;;;;;;5119301;28;20496;-69
2023/06/25 13:56:47;;;;;;;5.43;4.93;;;;;;;;;;5105175;28;20454;-71
2023/06/25 13:59:14;;;;;;;7.60;5.07;;;;;;;;;;5120251;28;20515;-71
2023/06/25 14:01:41;;;;;;;5.67;5.17;;;;;;;;;;5121990;27;20480;-69
2023/06/25 14:04:07;;;;;;;5.20;4.70;;;;;;;;;;5120028;28;20446;-68
2023/06/25 14:06:33;;;;;;;6.23;5.63;;;;;;;;;;5113194;28;20458;-69
2023/06/25 14:09:00;;;;;;;6.93;5.20;;;;;;;;;;5112561;28;20931;-71
2023/06/25 14:11:26;;;;;;;5.47;4.50;;;;;;;;;;5121211;27;20853;-71
2023/06/25 14:13:53;;;;;;;5.70;5.20;;;;;;;;;;5119028;28;20457;-71
2023/06/25 14:16:21;;;;;;;5.87;5.00;;;;;;;;;;5112796;27;20460;-71
2023/06/25 14:18:47;;;;;;;7.40;5.03;;;;;;;;;;5124096;27;20449;-71
2023/06/25 14:21:13;;;;;;;6.23;5.63;;;;;;;;;;5111277;28;20443;-71
2023/06/25 14:23:40;;;;;;;5.70;5.10;;;;;;;;;;5114867;27;20477;-72
2023/06/25 14:26:07;;;;;;;8.50;5.40;;;;;;;;;;5110841;28;20506;-71
2023/06/25 14:28:33;;;;;;;6.83;5.40;;;;;;;;;;5106747;28;20451;-71
2023/06/25 14:31:00;;;;;;;6.20;5.30;;;;;;;;;;5117120;27;20478;-71
2023/06/25 14:33:30;;;;;;;5.37;4.67;;;;;;;;;;5126734;27;20450;-69